Impacts METAR Board INFO
IDs:

KSTC - St Cloud Rgnl, MN, US

Updated at: 0751 UTC 17 Oct 2017
Potential Impact None Slight Moderate High
Time16/19Z 16/20Z 16/21Z 16/22Z 16/23Z 17/00Z 17/01Z 17/02Z 17/03Z 17/04Z 17/05Z 17/06Z 17/07Z
VIS10 10 10 10 10 10 10 10 10 10 10 10 10
CIG-- -- -- -- -- -- -- -- -- -- -- -- --
CoverCLRCLRCLRCLRCLRCLRCLRCLRCLRCLRCLRCLRCLR
FltCatVFRVFRVFRVFRVFRVFRVFRVFRVFRVFRVFRVFRVFR
WX--------------------------
WDir18021018019020017016020022019001600
WSpd13 14 12 10 8 7 7 6 5 3 0 3 0
WGst-- 19 -- -- -- -- -- -- -- -- -- -- --
Raw hourly METARs
KSTC 161853Z 18013KT 10SM CLR 16/03 A3008 RMK AO2 SLP202 T01610028
KSTC 161953Z 21014G19KT 10SM CLR 17/03 A3004 RMK AO2 SLP187 T01720028
KSTC 162053Z 18012KT 10SM CLR 18/03 A3001 RMK AO2 SLP175 T01780033 57036
KSTC 162153Z 19010KT 10SM CLR 18/03 A2997 RMK AO2 SLP163 T01830033
KSTC 162253Z 20008KT 10SM CLR 17/03 A2997 RMK AO2 SLP161 T01720033
KSTC 162353Z 17007KT 10SM CLR 14/04 A2995 RMK AO2 SLP157 T01390039 10183 20139 56019
KSTC 170053Z 16007KT 10SM CLR 11/04 A2994 RMK AO2 SLP157 T01060044
KSTC 170153Z 20006KT 10SM CLR 11/04 A2993 RMK AO2 SLP150 T01110039
KSTC 170253Z 22005KT 10SM CLR 10/04 A2995 RMK AO2 SLP154 T01000039 55001
KSTC 170353Z 19003KT 10SM CLR 10/04 A2994 RMK AO2 SLP152 T01000039
KSTC 170453Z AUTO 00000KT 10SM CLR 08/04 A2994 RMK AO2 SLP150 T00830039
KSTC 170553Z AUTO 16003KT 10SM CLR 06/04 A2994 RMK AO2 SLP151 T00560039 10139 20050 401831011 55001
KSTC 170653Z AUTO 00000KT 10SM CLR 05/04 A2995 RMK AO2 SLP154 T00500039